Conejos, Valles Caldera, New Mexico Weather observations

Data are for 10 minute period ending at time listed.
 Day   Time   Solar   Ave.   Ave.  Ave.  Vector  Max.   Baro.   Total    
  of    of     Rad.   Air    Rel.  Wind   Wind   Wind  Press.  Precip.   
Year   Day            Temp.  Hum.  Speed  Dir.   Gust                    
2016   (MST)  Kw/m2    F      %     mph   deg.    mph    mb.     in.     
-------------------------------------------------------------------------
 123    0:30   0.00   26.9    99    0.0     0     0.0   99999.0    0.00 
 123    0:40   0.00   26.9    99    0.0     0     0.0   99999.0    0.00 
 123    0:50   0.00   27.0    99    0.0     0     0.0   99999.0    0.00 
 123    1:00   0.00   27.0    99    0.0     0     0.0   99999.0    0.00 
 123    1:10   0.00   27.0    99    0.0     0     0.0   99999.0    0.00 
 123    1:20   0.00   26.9    99    0.0     0     0.0   99999.0    0.00 
 123    1:30   0.00   26.9    99    0.0     0     0.0   99999.0    0.00 
 123    1:40   0.00   26.9    99    0.0     0     0.0   99999.0    0.00 
 123    1:50   0.00   27.0    99    0.0     0     0.0   99999.0    0.00 
 123    2:00   0.00   26.9    99    0.0     0     0.0   99999.0    0.00 
 123    2:10   0.00   26.7    98    0.0     0     0.0   99999.0    0.00 
 123    2:20   0.00   26.5    98    0.0     0     0.0   99999.0    0.00 
 123    2:30   0.00   26.5    99    0.0     0     0.0   99999.0    0.00 
 123    2:40   0.00   26.5    99    0.0     0     0.0   99999.0    0.00 
 123    2:50   0.00   26.7    99    0.0     0     0.0   99999.0    0.00 
 123    3:00   0.00   26.6    99    0.0     0     0.0   99999.0    0.00 
 123    3:10   0.00   26.6    99    0.0     0     0.0   99999.0    0.00 
 123    3:20   0.00   26.3    98    0.0     0     0.0   99999.0    0.00 
 123    3:30   0.00   25.8    98    0.0     0     0.0   99999.0    0.00 
 123    3:40   0.00   25.7    98    0.0     0     0.0   99999.0    0.00 
 123    3:50   0.00   25.7    98    0.0     0     0.0   99999.0    0.01 
 123    4:00   0.00   25.8    98    0.0     0     0.0   99999.0    0.00 
 123    4:10   0.00   25.8    98    0.0     0     0.0   99999.0    0.00 
 123    4:20   0.00   25.7    98    0.0     0     0.0   99999.0    0.00 
 123    4:30   0.00   25.8    98    0.0     0     0.0   99999.0    0.00 
 123    4:40   0.00   25.9    98    0.0     0     0.0   99999.0    0.00 
 123    4:50   0.00   25.9    98    0.0     0     0.0   99999.0    0.00 
 123    5:00   0.00   25.7    98    0.0     0     0.0   99999.0    0.00 
 123    5:10   0.00   25.6    98    0.0     0     0.0   99999.0    0.00 
 123    5:20   0.00   25.7    98    0.0     0     0.0   99999.0    0.00 
 123    5:30   0.00   25.7    98    0.0     0     0.0   99999.0    0.00 
 123    5:40   0.01   25.9    98    0.0     0     0.0   99999.0    0.00 
 123    5:50   0.02   26.1    98    0.0     0     0.0   99999.0    0.00 
 123    6:00   0.02   26.2    97    0.0     0     0.0   99999.0    0.00 
 123    6:10   0.03   26.3    97    0.0     0     0.0   99999.0    0.00 
 123    6:20   0.04   26.5    96    0.0     0     0.0   99999.0    0.00 
 123    6:30   0.04   26.6    95    0.0     0     0.0   99999.0    0.00 
 123    6:40   0.06   26.5    94    0.0     0     0.0   99999.0    0.00 
 123    6:50   0.06   26.5    93    0.0     0     0.0   99999.0    0.00 
 123    7:00   0.08   26.9    93    0.0     0     0.0   99999.0    0.00 
 123    7:10   0.09   27.3    94    0.0     0     0.0   99999.0    0.00 
 123    7:20   0.10   27.4    91    0.0     0     0.0   99999.0    0.00 
 123    7:30   0.12   27.7    92    0.0     0     0.0   99999.0    0.00 
 123    7:40   0.15   28.4    92    0.0     0     0.0   99999.0    0.00 
 123    7:50   0.13   28.3    91    0.0     0     0.0   99999.0    0.00 
 123    8:00   0.15   28.5    91    0.0   156     1.2   99999.0    0.00 
 123    8:10   0.14   28.2    90    0.0     0     0.0   99999.0    0.00 
 123    8:20   0.21   28.8    90    0.0     0     0.0   99999.0    0.00 
 123    8:30   0.23   29.0    88    0.0     0     0.0   99999.0    0.00 
 123    8:40   0.24   29.3    88    0.0     0     0.0   99999.0    0.00 
 123    8:50   0.32   29.8    87    0.0     0     0.0   99999.0    0.01 
 123    9:00   0.28   30.2    86    0.0     0     0.0   99999.0    0.00 
 123    9:10   0.34   30.7    86    0.0     0     0.0   99999.0    0.00 
 123    9:20   0.51   31.5    85    0.0     0     0.0   99999.0    0.00 
 123    9:30   100.00  99999.0   99999  99999.0   99999   99999.0   99999.0   99999.00 
 123    9:40   100.00  99999.0   99999  99999.0   99999   99999.0   99999.0   99999.00 
 123    9:50   100.00  99999.0   99999  99999.0   99999   99999.0   99999.0   99999.00 
 123   10:00   100.00  99999.0   99999  99999.0   99999   99999.0   99999.0   99999.00 
 123   10:10   100.00  99999.0   99999  99999.0   99999   99999.0   99999.0   99999.00 
 123   10:20   100.00  99999.0   99999  99999.0   99999   99999.0   99999.0   99999.00 
 123   10:30   100.00  99999.0   99999  99999.0   99999   99999.0   99999.0   99999.00 
 123   10:40   100.00  99999.0   99999  99999.0   99999   99999.0   99999.0   99999.00 
 123   10:50   100.00  99999.0   99999  99999.0   99999   99999.0   99999.0   99999.00 
 123   11:00   100.00  99999.0   99999  99999.0   99999   99999.0   99999.0   99999.00 
 123   11:10   100.00  99999.0   99999  99999.0   99999   99999.0   99999.0   99999.00 
 123   11:20   100.00  99999.0   99999  99999.0   99999   99999.0   99999.0   99999.00 
 123   11:30   100.00  99999.0   99999  99999.0   99999   99999.0   99999.0   99999.00 
 123   11:40   100.00  99999.0   99999  99999.0   99999   99999.0   99999.0   99999.00 
 123   11:50   100.00  99999.0   99999  99999.0   99999   99999.0   99999.0   99999.00 
 123   12:00   100.00  99999.0   99999  99999.0   99999   99999.0   99999.0   99999.00 
 123   12:10   100.00  99999.0   99999  99999.0   99999   99999.0   99999.0   99999.00 
 123   12:20   100.00  99999.0   99999  99999.0   99999   99999.0   99999.0   99999.00 
 123   12:30   100.00  99999.0   99999  99999.0   99999   99999.0   99999.0   99999.00 
 123   12:40   100.00  99999.0   99999  99999.0   99999   99999.0   99999.0   99999.00 
 123   12:50   100.00  99999.0   99999  99999.0   99999   99999.0   99999.0   99999.00 
 123   13:00   100.00  99999.0   99999  99999.0   99999   99999.0   99999.0   99999.00 
 123   13:10   100.00  99999.0   99999  99999.0   99999   99999.0   99999.0   99999.00 
 123   13:20   100.00  99999.0   99999  99999.0   99999   99999.0   99999.0   99999.00 
 123   13:30   0.42   43.3    59    0.0     0     0.0   99999.0    0.00 
 123   13:40   0.31   42.5    59    0.0     0     0.0   99999.0    0.00 
 123   13:50   0.33   42.6    59    0.0     0     0.0   99999.0    0.00 
 123   14:00   0.22   42.3    58    0.0     0     0.0   99999.0    0.00 
 123   14:10   0.13   43.2    58    0.0     0     0.0   99999.0    0.00 
 123   14:20   0.17   42.4    58    0.0     0     0.0   99999.0    0.00 
 123   14:30   0.25   43.7    57    0.0     0     0.0   99999.0    0.00 
 123   14:40   0.14   44.9    54    0.0     0     0.0   99999.0    0.00 
 123   14:50   0.15   44.2    55    0.0     0     0.0   99999.0    0.00 
 123   15:00   0.12   43.0    55    0.0     0     0.0   99999.0    0.00 
 123   15:10   0.16   43.1    56    0.0     0     0.0   99999.0    0.00 
 123   15:20   0.18   43.7    55    0.0     0     0.0   99999.0    0.00 
 123   15:30   0.18   44.3    53    0.0     0     0.0   99999.0    0.00 
 123   15:40   0.31   44.9    54    0.0     0     0.0   99999.0    0.00 
 123   15:50   0.38   45.7    54    0.0     0     0.0   99999.0    0.00 
 123   16:00   0.59   46.9    50    0.0     0     0.0   99999.0    0.00 
 123   16:10   0.31   46.2    49    0.0     0     0.0   99999.0    0.00 
 123   16:20   0.17   45.7    49    0.0     0     0.0   99999.0    0.00 
 123   16:30   0.14   45.8    48    0.0     0     0.0   99999.0    0.00 
 123   16:40   0.13   45.7    48    0.0     0     0.0   99999.0    0.00 
 123   16:50   0.12   45.7    48    0.0     0     0.0   99999.0    0.00 
 123   17:00   0.15   45.9    48    0.0     0     0.0   99999.0    0.00 
 123   17:10   0.09   45.5    47    0.0     0     0.0   99999.0    0.00 
 123   17:20   0.04   45.0    49    0.0     0     0.0   99999.0    0.00 
 123   17:30   0.06   44.5    49    0.0     0     0.0   99999.0    0.00 
 123   17:40   0.04   44.0    51    0.0     0     0.0   99999.0    0.00 
 123   17:50   0.03   43.6    53    0.0     0     0.0   99999.0    0.00 
 123   18:00   0.02   43.1    55    0.0     0     0.0   99999.0    0.00 
 123   18:10   0.02   42.6    59    0.0     0     0.0   99999.0    0.00 
 123   18:20   0.01   41.6    63    0.0     0     0.0   99999.0    0.00 
 123   18:30   0.01   40.7    65    0.0     0     0.0   99999.0    0.00 
 123   18:40   0.01   40.0    67    0.0     0     0.0   99999.0    0.00 
 123   18:50   0.00   39.4    70    0.0     0     0.0   99999.0    0.00 
 123   19:00   0.00   39.0    71    0.0     0     0.0   99999.0    0.00 
 123   19:10   0.00   38.2    73    0.0     0     0.0   99999.0    0.00 
 123   19:20   0.00   38.3    72    0.0     0     0.0   99999.0    0.00 
 123   19:30   0.00   38.0    73    0.0     0     0.0   99999.0    0.00 
 123   19:40   0.00   37.2    72    0.0     0     0.0   99999.0    0.00 
 123   19:50   0.00   37.1    71    0.0     0     0.0   99999.0    0.00 
 123   20:00   0.00   36.6    73    0.0     0     0.0   99999.0    0.00 
 123   20:10   0.00   36.4    74    0.0     0     0.0   99999.0    0.00 
 123   20:20   0.00   36.2    72    0.0     0     0.0   99999.0    0.00 
 123   20:30   0.00   36.3    70    0.0     0     0.0   99999.0    0.00 
 123   20:40   0.00   36.5    68    0.0     0     0.0   99999.0    0.00 
 123   20:50   0.00   36.8    68    0.0     0     0.0   99999.0    0.00 
 123   21:00   0.00   37.9    65    0.0     0     0.0   99999.0    0.00 
 123   21:10   0.00   38.3    61    0.0     0     0.0   99999.0    0.00 
 123   21:20   0.00   39.1    59    0.0     0     0.0   99999.0    0.00 
 123   21:30   0.00   39.0    61    0.0     0     0.0   99999.0    0.00 
 123   21:40   0.00   38.1    64    0.0     0     0.0   99999.0    0.00 
 123   21:50   0.00   38.4    60    0.0     0     0.0   99999.0    0.00 
 123   22:00   0.00   38.1    62    0.0     0     0.0   99999.0    0.00 
 123   22:10   0.00   37.3    63    0.0     0     0.0   99999.0    0.00 
 123   22:20   0.00   36.8    65    0.0     0     0.0   99999.0    0.00 
 123   22:30   0.00   36.3    66    0.0     0     0.0   99999.0    0.00 
 123   22:40   0.00   35.6    68    0.0     0     0.0   99999.0    0.00 
 123   22:50   0.00   35.5    68    0.0     0     0.0   99999.0    0.00 
 123   23:00   0.00   35.1    68    0.0     0     0.0   99999.0    0.00 
 123   23:10   0.00   33.4    73    0.0     0     0.0   99999.0    0.00 
 123   23:20   0.00   33.2    72    0.0     0     0.0   99999.0    0.00 
 123   23:30   0.00   34.5    72    0.0     0     0.0   99999.0    0.00 
 123   23:40   0.00   36.0    71    0.0     0     0.0   99999.0    0.00 
 123   23:50   0.00   37.7    68    0.0     0     0.0   99999.0    0.00 
 124    0:00   0.00   38.3    66    0.0     0     0.0   99999.0    0.00 
 124    0:10   0.00   37.7    67    0.0     0     0.0   99999.0    0.00 
 124    0:20   0.00   37.1    69    0.0     0     0.0   99999.0    0.00 

Return to Conejos, Valles Caldera graphs page.


Western Regional Climate Center,wrcc@dri.edu